createdAt,value
2018-06-05T00:01:16.442Z,7.93
2018-06-05T00:03:45.034Z,7.90
2018-06-05T00:06:13.245Z,8.00
2018-06-05T00:08:41.828Z,8.20
2018-06-05T00:11:10.399Z,8.70
2018-06-05T00:13:38.981Z,7.80
2018-06-05T00:16:07.524Z,8.13
2018-06-05T00:18:36.099Z,8.33
2018-06-05T00:21:04.663Z,7.67
2018-06-05T00:23:33.225Z,8.63
2018-06-05T00:26:01.794Z,9.33
2018-06-05T00:28:30.382Z,8.50
2018-06-05T00:30:58.943Z,8.30
2018-06-05T00:33:27.498Z,9.60
2018-06-05T00:35:56.087Z,8.47
2018-06-05T00:38:24.308Z,7.33
2018-06-05T00:40:52.879Z,8.37
2018-06-05T00:43:21.428Z,9.00
2018-06-05T00:45:50.894Z,8.50
2018-06-05T00:48:19.482Z,8.73
2018-06-05T00:50:48.076Z,8.50
2018-06-05T00:53:16.647Z,8.43
2018-06-05T00:55:45.269Z,8.87
2018-06-05T00:58:13.480Z,9.30
2018-06-05T01:00:42.062Z,9.17
2018-06-05T01:03:10.621Z,8.57
2018-06-05T01:05:39.302Z,8.77
2018-06-05T01:08:07.881Z,8.40
2018-06-05T01:10:36.546Z,9.80
2018-06-05T01:13:05.139Z,9.37
2018-06-05T01:15:33.734Z,9.33
2018-06-05T01:18:02.306Z,9.20
2018-06-05T01:20:30.881Z,8.03
2018-06-05T01:22:59.470Z,9.33
2018-06-05T01:25:28.062Z,9.20
2018-06-05T01:27:56.630Z,9.47
2018-06-05T01:30:25.214Z,8.47
2018-06-05T01:32:53.761Z,8.90
2018-06-05T01:35:22.363Z,8.83
2018-06-05T01:37:50.901Z,9.30
2018-06-05T01:40:19.489Z,9.30
2018-06-05T01:42:48.034Z,9.20
2018-06-05T01:45:16.634Z,8.40
2018-06-05T01:47:45.207Z,10.17
2018-06-05T01:50:13.794Z,9.23
2018-06-05T01:52:42.374Z,9.43
2018-06-05T01:55:10.606Z,8.53
2018-06-05T01:57:39.246Z,9.10
2018-06-05T02:00:07.818Z,9.53
2018-06-05T02:02:36.399Z,9.43
2018-06-05T02:05:05.002Z,10.73
2018-06-05T02:07:33.578Z,10.27
2018-06-05T02:10:02.127Z,9.20
2018-06-05T02:12:30.726Z,9.77
2018-06-05T02:14:59.290Z,8.50
2018-06-05T02:17:27.878Z,8.77
2018-06-05T02:19:56.449Z,9.87
2018-06-05T02:22:25.033Z,10.07
2018-06-05T02:24:53.589Z,9.03
2018-06-05T02:27:22.170Z,9.53
2018-06-05T02:29:50.734Z,10.53
2018-06-05T02:32:19.347Z,9.10
2018-06-05T02:34:47.919Z,10.33
2018-06-05T02:37:16.503Z,10.03
2018-06-05T02:39:45.083Z,8.47
2018-06-05T02:42:13.662Z,9.97
2018-06-05T02:44:42.238Z,10.20
2018-06-05T02:47:10.837Z,11.00
2018-06-05T02:49:39.442Z,10.40
2018-06-05T02:52:08.046Z,10.47
2018-06-05T02:54:36.596Z,10.40
2018-06-05T02:57:05.399Z,10.70
2018-06-05T02:59:33.966Z,10.13
2018-06-05T03:02:02.542Z,11.80
2018-06-05T03:04:31.102Z,9.70
2018-06-05T03:06:59.686Z,11.27
2018-06-05T03:09:28.237Z,9.50
2018-06-05T03:11:56.838Z,9.83
2018-06-05T03:14:25.390Z,10.20
2018-06-05T03:16:54.031Z,10.60
2018-06-05T03:19:22.605Z,10.07
2018-06-05T03:21:51.194Z,11.10
2018-06-05T03:24:19.769Z,9.77
2018-06-05T03:26:48.314Z,10.60
2018-06-05T03:29:16.556Z,11.33
2018-06-05T03:31:45.104Z,11.97
2018-06-05T03:34:13.692Z,10.37
2018-06-05T03:36:42.268Z,10.63
2018-06-05T03:39:10.894Z,10.67
2018-06-05T03:41:39.462Z,11.23
2018-06-05T03:44:08.047Z,10.37
2018-06-05T03:46:36.600Z,15.60
2018-06-05T03:49:05.197Z,25.10
2018-06-05T03:51:33.791Z,36.10
2018-06-05T03:54:02.378Z,12.50
2018-06-05T03:56:31.035Z,19.50
2018-06-05T03:58:59.602Z,19.63
2018-06-05T04:01:28.163Z,15.30
2018-06-05T04:03:56.754Z,13.30
2018-06-05T04:06:24.977Z,12.37
2018-06-05T04:08:53.550Z,11.50
2018-06-05T04:11:22.136Z,11.83
2018-06-05T04:13:50.720Z,11.13
2018-06-05T04:16:19.274Z,10.57
2018-06-05T04:18:47.877Z,11.23
2018-06-05T04:21:16.441Z,11.50
2018-06-05T04:23:45.030Z,11.53
2018-06-05T04:26:13.591Z,11.83
2018-06-05T04:28:42.185Z,11.30
2018-06-05T04:31:10.745Z,10.77
2018-06-05T04:33:38.998Z,10.50
2018-06-05T04:36:07.623Z,12.13
2018-06-05T04:38:36.191Z,12.87
2018-06-05T04:41:04.846Z,11.00
2018-06-05T04:43:33.417Z,10.90
2018-06-05T04:46:01.999Z,12.13
2018-06-05T04:48:30.558Z,11.00
2018-06-05T04:50:59.147Z,11.50
2018-06-05T04:53:27.711Z,10.87
2018-06-05T04:55:56.297Z,11.07
2018-06-05T04:58:24.871Z,11.13
2018-06-05T05:00:53.458Z,10.10
2018-06-05T05:03:22.029Z,10.70
2018-06-05T05:05:50.615Z,12.13
2018-06-05T05:08:19.178Z,11.63
2018-06-05T05:10:47.786Z,10.87
2018-06-05T05:13:16.358Z,11.03
2018-06-05T05:15:44.938Z,10.40
2018-06-05T05:18:13.522Z,10.83
2018-06-05T05:20:42.109Z,11.83
2018-06-05T05:23:10.661Z,11.73
2018-06-05T05:25:39.311Z,11.30
2018-06-05T05:28:07.862Z,11.93
2018-06-05T05:30:36.469Z,10.20
2018-06-05T05:33:05.042Z,11.50
2018-06-05T05:35:33.631Z,11.20
2018-06-05T05:38:02.190Z,10.00
2018-06-05T05:40:30.463Z,12.97
2018-06-05T05:42:59.026Z,12.90
2018-06-05T05:45:27.606Z,12.10
2018-06-05T05:47:56.163Z,10.53
2018-06-05T05:50:24.721Z,10.50
2018-06-05T05:52:53.310Z,10.00
2018-06-05T05:55:21.875Z,10.67
2018-06-05T05:57:50.441Z,11.10
2018-06-05T06:00:18.668Z,10.60
2018-06-05T06:02:47.256Z,10.20
2018-06-05T06:05:15.822Z,10.83
2018-06-05T06:07:44.405Z,10.53
2018-06-05T06:10:12.957Z,10.17
2018-06-05T06:12:41.579Z,9.23
2018-06-05T06:15:10.143Z,9.67
2018-06-05T06:17:38.760Z,8.63
2018-06-05T06:20:07.326Z,8.67
2018-06-05T06:22:35.905Z,8.20
2018-06-05T06:25:04.680Z,7.90
2018-06-05T06:27:33.323Z,7.83
2018-06-05T06:30:01.873Z,8.10
2018-06-05T06:32:30.465Z,8.47
2018-06-05T06:34:59.012Z,8.03
2018-06-05T06:37:27.606Z,7.70
2018-06-05T06:39:56.172Z,7.80
2018-06-05T06:42:24.773Z,6.90
2018-06-05T06:44:53.331Z,7.87
2018-06-05T06:47:21.914Z,8.83
2018-06-05T06:49:50.507Z,6.60
2018-06-05T06:52:19.094Z,7.70
2018-06-05T06:54:47.672Z,7.80
2018-06-05T06:57:16.251Z,6.60
2018-06-05T06:59:44.814Z,7.30
2018-06-05T07:02:13.382Z,7.30
2018-06-05T07:04:41.962Z,7.37
2018-06-05T07:07:10.209Z,7.50
2018-06-05T07:09:39.259Z,7.00
2018-06-05T07:12:07.880Z,7.13
2018-06-05T07:14:36.440Z,7.40
2018-06-05T07:17:05.007Z,8.10
2018-06-05T07:19:33.558Z,7.97
2018-06-05T07:22:02.182Z,7.33
2018-06-05T07:24:30.746Z,7.07
2018-06-05T07:26:59.322Z,6.80
2018-06-05T07:29:27.872Z,7.57
2018-06-05T07:31:56.427Z,6.40
2018-06-05T07:34:25.015Z,7.20
2018-06-05T07:36:53.566Z,6.90
2018-06-05T07:39:22.145Z,6.70
2018-06-05T07:41:50.698Z,6.40
2018-06-05T07:44:19.295Z,6.27
2018-06-05T07:46:47.513Z,6.37
2018-06-05T07:49:16.093Z,7.20
2018-06-05T07:51:44.642Z,6.83
2018-06-05T07:54:13.223Z,6.80
2018-06-05T07:56:41.799Z,6.20
2018-06-05T07:59:10.374Z,6.07
2018-06-05T08:01:38.965Z,6.47
2018-06-05T08:04:07.552Z,6.47
2018-06-05T08:06:36.111Z,6.50
2018-06-05T08:09:07.934Z,7.53
2018-06-05T08:11:36.779Z,6.87
2018-06-05T08:14:05.359Z,6.20
2018-06-05T08:16:33.574Z,6.77
2018-06-05T08:19:02.170Z,6.73
2018-06-05T08:21:30.725Z,6.60
2018-06-05T08:23:59.282Z,6.60
2018-06-05T08:26:37.639Z,6.80
2018-06-05T08:29:06.215Z,7.00
2018-06-05T08:31:34.794Z,6.40
2018-06-05T08:34:03.354Z,6.90
2018-06-05T08:36:31.910Z,8.00
2018-06-05T08:39:00.492Z,6.90
2018-06-05T08:41:29.071Z,7.03
2018-06-05T08:43:57.685Z,7.30
2018-06-05T08:46:26.237Z,6.97
2018-06-05T08:48:54.890Z,6.40
2018-06-05T08:51:23.161Z,7.50
2018-06-05T08:53:51.718Z,6.60
2018-06-05T08:56:20.278Z,7.60
2018-06-05T08:58:48.878Z,7.00
2018-06-05T09:01:17.439Z,8.00
2018-06-05T09:03:46.042Z,7.07
2018-06-05T09:06:14.602Z,7.50
2018-06-05T09:08:43.263Z,7.27
2018-06-05T09:11:11.880Z,7.23
2018-06-05T09:13:40.154Z,7.30
2018-06-05T09:16:08.710Z,7.10
2018-06-05T09:18:37.283Z,8.20
2018-06-05T09:21:05.938Z,6.97
2018-06-05T09:23:34.504Z,6.90
2018-06-05T09:26:03.171Z,7.60
2018-06-05T09:28:31.775Z,6.80
2018-06-05T09:31:00.361Z,6.63
2018-06-05T09:33:28.938Z,7.00
2018-06-05T09:35:57.522Z,8.13
2018-06-05T09:38:26.070Z,5.60
2018-06-05T09:40:54.633Z,6.20
2018-06-05T09:43:23.190Z,6.27
2018-06-05T09:45:51.757Z,6.73
2018-06-05T09:48:20.325Z,6.83
2018-06-05T09:50:48.919Z,6.33
2018-06-05T09:53:17.498Z,5.90
2018-06-05T09:55:46.086Z,6.10
2018-06-05T09:58:14.755Z,6.70
2018-06-05T10:00:48.501Z,6.57
2018-06-05T10:03:17.066Z,6.10
2018-06-05T10:05:45.641Z,6.13
2018-06-05T10:08:14.186Z,6.77
2018-06-05T10:10:42.771Z,6.43
2018-06-05T10:13:11.360Z,6.57
2018-06-05T10:15:39.980Z,5.90
2018-06-05T10:18:08.563Z,6.30
2018-06-05T10:20:37.199Z,6.80
2018-06-05T10:23:05.976Z,5.83
2018-06-05T10:25:34.580Z,5.77
2018-06-05T10:28:02.809Z,6.60
2018-06-05T10:30:31.477Z,6.53
2018-06-05T10:33:00.032Z,5.80
2018-06-05T10:35:28.273Z,7.03
2018-06-05T10:37:56.872Z,6.20
2018-06-05T10:40:25.457Z,6.50
2018-06-05T10:42:54.035Z,6.80
2018-06-05T10:45:22.607Z,6.70
2018-06-05T10:47:51.215Z,7.57
2018-06-05T10:50:19.441Z,6.70
2018-06-05T10:52:48.036Z,7.20
2018-06-05T10:55:16.590Z,7.07
2018-06-05T10:57:45.176Z,7.37
2018-06-05T11:00:13.750Z,7.30
2018-06-05T11:02:42.385Z,7.00
2018-06-05T11:05:10.946Z,7.03
2018-06-05T11:07:40.496Z,7.30
2018-06-05T11:10:10.159Z,7.43
2018-06-05T11:12:38.832Z,6.80
2018-06-05T11:15:07.608Z,7.57
2018-06-05T11:17:36.253Z,7.80
2018-06-05T11:20:05.214Z,7.17
2018-06-05T11:22:33.807Z,7.97
2018-06-05T11:25:02.411Z,7.33
2018-06-05T11:27:30.989Z,7.00
2018-06-05T11:29:59.626Z,7.90
2018-06-05T11:32:28.230Z,7.40
2018-06-05T11:34:56.772Z,7.50
2018-06-05T11:37:25.402Z,7.27
2018-06-05T11:39:53.966Z,8.40
2018-06-05T11:42:22.548Z,7.43
2018-06-05T11:44:51.137Z,7.23
2018-06-05T11:47:19.735Z,8.30
2018-06-05T11:49:48.301Z,7.37
2018-06-05T11:52:16.889Z,7.90
2018-06-05T11:54:45.526Z,8.83
2018-06-05T11:57:14.111Z,8.70
2018-06-05T11:59:42.697Z,8.50
2018-06-05T12:02:11.296Z,8.77
2018-06-05T12:04:39.881Z,8.60
2018-06-05T12:07:08.538Z,7.93
2018-06-05T12:09:37.120Z,7.87
2018-06-05T12:12:05.718Z,8.13
2018-06-05T12:14:34.330Z,8.10
2018-06-05T12:17:02.903Z,8.10
2018-06-05T12:19:31.497Z,8.67
2018-06-05T12:22:00.108Z,9.07
2018-06-05T12:24:28.681Z,8.23
2018-06-05T12:26:57.232Z,8.67
2018-06-05T12:29:25.808Z,8.80
2018-06-05T12:31:54.382Z,8.80
2018-06-05T12:34:22.999Z,8.90
2018-06-05T12:36:51.605Z,8.87
2018-06-05T12:39:20.220Z,8.13
2018-06-05T12:41:48.909Z,8.60
2018-06-05T12:44:17.424Z,9.57
2018-06-05T12:46:45.970Z,8.57
2018-06-05T12:49:14.213Z,7.90
2018-06-05T12:51:42.842Z,7.47
2018-06-05T12:54:11.439Z,8.33
2018-06-05T12:56:40.033Z,8.20
2018-06-05T12:59:08.716Z,9.03
2018-06-05T13:01:37.266Z,7.93
2018-06-05T13:04:06.033Z,8.10
2018-06-05T13:06:34.616Z,8.70
2018-06-05T13:09:03.467Z,8.73
2018-06-05T13:11:32.119Z,8.57
2018-06-05T13:14:00.671Z,8.40
2018-06-05T13:16:28.920Z,9.07
2018-06-05T13:18:57.483Z,9.03
2018-06-05T13:21:27.187Z,8.40
2018-06-05T13:23:55.759Z,7.60
2018-06-05T13:26:24.386Z,7.93
2018-06-05T13:28:52.931Z,8.07
2018-06-05T13:31:21.518Z,7.80
2018-06-05T13:33:50.597Z,8.47
2018-06-05T13:36:19.207Z,8.30
2018-06-05T13:38:47.951Z,8.20
2018-06-05T13:41:17.154Z,9.23
2018-06-05T13:43:45.785Z,8.20
2018-06-05T13:46:14.368Z,8.17
2018-06-05T13:48:42.975Z,7.87
2018-06-05T13:51:11.547Z,8.30
2018-06-05T13:53:40.159Z,8.77
2018-06-05T13:56:08.756Z,8.27
2018-06-05T13:58:40.338Z,8.30
2018-06-05T14:01:11.802Z,7.23
2018-06-05T14:03:41.075Z,8.00
2018-06-05T14:06:11.365Z,7.50
2018-06-05T14:08:41.364Z,7.60
2018-06-05T14:11:09.989Z,7.40
2018-06-05T14:13:43.119Z,8.00
2018-06-05T14:16:16.656Z,9.43
2018-06-05T14:18:46.754Z,7.50
2018-06-05T14:21:15.346Z,10.07
2018-06-05T14:23:46.652Z,6.90
2018-06-05T14:26:16.231Z,6.90
2018-06-05T14:28:51.606Z,7.60
2018-06-05T14:31:20.202Z,6.90
2018-06-05T14:33:50.887Z,7.40
2018-06-05T14:36:19.839Z,7.17
2018-06-05T14:38:48.567Z,7.37
2018-06-05T14:41:17.286Z,6.50
2018-06-05T14:43:45.854Z,6.00
2018-06-05T14:46:14.415Z,7.43
2018-06-05T14:48:43.012Z,6.87
2018-06-05T14:51:11.654Z,7.20
2018-06-05T14:53:40.354Z,6.80
2018-06-05T14:56:09.010Z,6.87
2018-06-05T14:58:37.870Z,7.00
2018-06-05T15:01:06.545Z,6.80
2018-06-05T15:03:35.129Z,6.83
2018-06-05T15:06:03.848Z,7.37
2018-06-05T15:08:32.419Z,7.57
2018-06-05T15:11:01.056Z,7.07
2018-06-05T15:13:29.630Z,32.80
2018-06-05T15:15:58.189Z,6.27
2018-06-05T15:18:26.779Z,6.50
2018-06-05T15:20:55.026Z,5.40
2018-06-05T15:23:23.652Z,5.73
2018-06-05T15:25:52.291Z,6.00
2018-06-05T15:28:20.931Z,5.97
2018-06-05T15:30:49.521Z,5.90
2018-06-05T15:33:18.103Z,7.40
2018-06-05T15:35:46.706Z,6.37
2018-06-05T15:38:15.321Z,5.43
2018-06-05T15:40:43.883Z,6.83
2018-06-05T15:43:12.466Z,6.10
2018-06-05T15:45:41.283Z,6.37
2018-06-05T15:48:09.886Z,5.90
2018-06-05T15:50:38.128Z,7.00
2018-06-05T15:53:06.751Z,6.07
2018-06-05T15:55:35.310Z,6.27
2018-06-05T15:58:04.008Z,6.83
2018-06-05T16:00:32.542Z,7.80
2018-06-05T16:03:01.130Z,7.27
2018-06-05T16:05:34.475Z,6.23
2018-06-05T16:08:06.338Z,5.97
2018-06-05T16:10:36.865Z,5.90
2018-06-05T16:13:06.492Z,6.07
2018-06-05T16:15:36.464Z,6.20
2018-06-05T16:18:05.138Z,6.13
2018-06-05T16:20:33.743Z,6.47
2018-06-05T16:23:01.978Z,6.63
2018-06-05T16:25:30.539Z,6.83
2018-06-05T16:27:59.126Z,7.40
2018-06-05T16:30:27.705Z,7.13
2018-06-05T16:33:00.923Z,6.80
2018-06-05T16:35:30.608Z,6.93
2018-06-05T16:38:00.929Z,8.30
2018-06-05T16:40:31.220Z,7.20
2018-06-05T16:42:59.787Z,8.07
2018-06-05T16:45:29.629Z,8.10
2018-06-05T16:47:58.195Z,8.20
2018-06-05T16:50:28.819Z,8.10
2018-06-05T16:52:57.449Z,7.60
2018-06-05T16:55:25.658Z,6.93
2018-06-05T16:57:54.206Z,7.40
2018-06-05T17:00:22.798Z,7.80
2018-06-05T17:02:51.364Z,7.50
2018-06-05T17:05:19.927Z,7.80
2018-06-05T17:07:48.518Z,7.87
2018-06-05T17:10:21.417Z,7.70
2018-06-05T17:13:02.298Z,8.40
2018-06-05T17:15:33.432Z,7.20
2018-06-05T17:18:03.830Z,7.67
2018-06-05T17:20:33.518Z,7.63
2018-06-05T17:23:05.391Z,8.77
2018-06-05T17:25:39.040Z,7.33
2018-06-05T17:28:13.872Z,8.80
2018-06-05T17:30:45.364Z,9.10
2018-06-05T17:33:13.975Z,7.80
2018-06-05T17:35:42.883Z,8.40
2018-06-05T17:38:11.636Z,7.80
2018-06-05T17:40:40.207Z,8.50
2018-06-05T17:43:08.854Z,9.67
2018-06-05T17:45:37.439Z,8.70
2018-06-05T17:48:06.766Z,8.03
2018-06-05T17:50:35.326Z,8.73
2018-06-05T17:53:03.915Z,9.73
2018-06-05T17:55:32.565Z,8.90
2018-06-05T17:58:02.598Z,8.73
2018-06-05T18:00:31.169Z,8.73
2018-06-05T18:02:59.762Z,8.93
2018-06-05T18:05:31.706Z,9.20
2018-06-05T18:08:00.208Z,8.50
2018-06-05T18:10:29.183Z,8.80
2018-06-05T18:12:57.858Z,8.57
2018-06-05T18:15:26.444Z,8.20
2018-06-05T18:17:55.025Z,8.77
2018-06-05T18:20:23.599Z,8.67
2018-06-05T18:22:52.236Z,9.47
2018-06-05T18:25:20.810Z,9.80
2018-06-05T18:27:49.432Z,8.17
2018-06-05T18:30:17.986Z,8.33
2018-06-05T18:32:49.001Z,8.70
2018-06-05T18:35:19.612Z,9.40
2018-06-05T18:37:48.943Z,9.00
2018-06-05T18:40:18.694Z,7.90
2018-06-05T18:42:50.091Z,8.37
2018-06-05T18:45:20.050Z,9.63
2018-06-05T18:47:48.679Z,9.17
2018-06-05T18:50:18.489Z,8.63
2018-06-05T18:52:47.136Z,8.83
2018-06-05T18:55:15.708Z,10.10
2018-06-05T18:57:44.316Z,8.60
2018-06-05T19:00:12.898Z,10.07
2018-06-05T19:02:43.458Z,9.37
2018-06-05T19:05:12.015Z,8.00
2018-06-05T19:07:40.695Z,9.10
2018-06-05T19:10:09.295Z,8.43
2018-06-05T19:12:37.978Z,7.63
2018-06-05T19:15:06.562Z,9.43
2018-06-05T19:17:35.184Z,9.60
2018-06-05T19:20:03.857Z,10.17
2018-06-05T19:22:32.490Z,9.10
2018-06-05T19:25:02.443Z,8.90
2018-06-05T19:27:31.635Z,8.90
2018-06-05T19:30:00.237Z,9.57
2018-06-05T19:32:28.826Z,9.93
2018-06-05T19:34:58.719Z,8.73
2018-06-05T19:37:30.263Z,10.30
2018-06-05T19:39:58.909Z,11.07
2018-06-05T19:42:27.516Z,10.53
2018-06-05T19:44:56.070Z,10.20
2018-06-05T19:47:24.673Z,9.67
2018-06-05T19:49:54.809Z,10.10
2018-06-05T19:52:24.254Z,9.27
2018-06-05T19:54:52.875Z,9.87
2018-06-05T19:57:24.845Z,9.80
2018-06-05T19:59:57.055Z,9.70
2018-06-05T20:02:25.743Z,11.20
2018-06-05T20:04:54.290Z,10.73
2018-06-05T20:07:22.869Z,9.80
2018-06-05T20:09:51.419Z,9.50
2018-06-05T20:12:20.040Z,10.17
2018-06-05T20:14:48.622Z,9.63
2018-06-05T20:17:17.207Z,9.40
2018-06-05T20:19:45.798Z,9.97
2018-06-05T20:22:14.352Z,9.20
2018-06-05T20:24:42.925Z,9.70
2018-06-05T20:27:11.599Z,9.83
2018-06-05T20:29:40.191Z,8.80
2018-06-05T20:32:09.373Z,9.50
2018-06-05T20:34:38.010Z,9.50
2018-06-05T20:37:07.960Z,10.00
2018-06-05T20:39:38.327Z,9.57
2018-06-05T20:42:07.569Z,10.10
2018-06-05T20:44:37.374Z,10.20
2018-06-05T20:47:08.024Z,9.37
2018-06-05T20:49:38.225Z,9.33
2018-06-05T20:52:08.777Z,9.17
2018-06-05T20:54:39.423Z,9.60
2018-06-05T20:57:09.800Z,9.27
2018-06-05T20:59:39.927Z,10.40
2018-06-05T21:02:10.249Z,11.40
2018-06-05T21:04:41.135Z,9.70
2018-06-05T21:07:12.774Z,9.50
2018-06-05T21:09:43.206Z,9.50
2018-06-05T21:12:13.765Z,9.30
2018-06-05T21:14:44.262Z,8.43
2018-06-05T21:17:12.910Z,9.83
2018-06-05T21:19:41.504Z,9.47
2018-06-05T21:22:10.072Z,8.73
2018-06-05T21:24:38.673Z,9.07
2018-06-05T21:27:07.302Z,10.40
2018-06-05T21:29:35.904Z,8.90
2018-06-05T21:32:07.192Z,8.53
2018-06-05T21:34:35.485Z,9.30
2018-06-05T21:37:06.601Z,8.73
2018-06-05T21:39:35.223Z,8.30
2018-06-05T21:42:03.816Z,9.87
2018-06-05T21:44:32.405Z,10.57
2018-06-05T21:47:00.974Z,10.70
2018-06-05T21:49:29.565Z,9.30
2018-06-05T21:51:58.670Z,10.37
2018-06-05T21:54:26.908Z,10.80
2018-06-05T21:56:55.487Z,13.30
2018-06-05T21:59:25.085Z,10.07
2018-06-05T22:01:53.645Z,12.07
2018-06-05T22:04:22.222Z,10.93
2018-06-05T22:06:50.777Z,11.23
2018-06-05T22:09:19.391Z,11.30
2018-06-05T22:11:47.988Z,11.00
2018-06-05T22:14:16.557Z,12.30
2018-06-05T22:16:45.145Z,11.80
2018-06-05T22:19:13.711Z,12.97
2018-06-05T22:21:42.317Z,11.70
2018-06-05T22:24:12.040Z,11.60
2018-06-05T22:26:40.330Z,11.50
2018-06-05T22:29:08.904Z,11.40
2018-06-05T22:31:37.492Z,11.83
2018-06-05T22:34:06.143Z,11.77
2018-06-05T22:36:36.330Z,12.07
2018-06-05T22:39:06.866Z,12.20
2018-06-05T22:41:35.458Z,9.90
2018-06-05T22:44:04.139Z,11.07
2018-06-05T22:46:32.730Z,13.07
2018-06-05T22:49:01.302Z,12.17
2018-06-05T22:51:31.865Z,11.10
2018-06-05T22:54:00.623Z,11.33
2018-06-05T22:56:29.175Z,11.57
2018-06-05T22:58:57.741Z,11.10
2018-06-05T23:01:27.954Z,9.97
2018-06-05T23:03:56.523Z,10.30
2018-06-05T23:06:25.100Z,11.93
2018-06-05T23:08:53.654Z,12.03
2018-06-05T23:11:22.260Z,12.57
2018-06-05T23:13:50.856Z,12.80
2018-06-05T23:16:19.454Z,11.83
2018-06-05T23:18:49.990Z,11.40
2018-06-05T23:21:20.103Z,11.90
2018-06-05T23:23:50.960Z,12.23
2018-06-05T23:26:20.853Z,12.03
2018-06-05T23:28:50.442Z,12.00
2018-06-05T23:31:19.030Z,11.40
2018-06-05T23:33:49.402Z,13.20
2018-06-05T23:36:19.757Z,12.40
2018-06-05T23:38:49.154Z,13.20
2018-06-05T23:41:19.535Z,12.63
2018-06-05T23:43:50.108Z,12.90
2018-06-05T23:46:20.725Z,12.23
2018-06-05T23:48:52.017Z,12.90
2018-06-05T23:51:22.423Z,12.80
2018-06-05T23:53:53.386Z,13.27
2018-06-05T23:56:23.917Z,13.93
2018-06-05T23:58:54.823Z,14.03
